Time;durP1;ratioP1;P1;durP2;ratioP2;P2;SDS_P1;SDS_P2;PMS_P1;PMS_P2;Temp;Humidity;BMP_temperature;BMP_pressure;BME280_temperature;BME280_humidity;BME280_pressure;Samples;Min_cycle;Max_cycle;Signal;HPM_P1;HPM_P2
2022/09/11 00:01:10;;;;;;;14.50;12.20;;;;;;;12.34;94.73;97937.48;105208;1280;138711;-66
2022/09/11 00:03:37;;;;;;;14.20;12.60;;;;;;;12.34;95.04;97940.43;105324;1280;22553;-67
2022/09/11 00:06:07;;;;;;;14.70;12.40;;;;;;;12.34;95.08;97943.48;105291;1280;24001;-66
2022/09/11 00:08:34;;;;;;;15.60;12.90;;;;;;;12.35;95.14;97946.44;105261;1280;138695;-66
2022/09/11 00:11:07;;;;;;;16.30;13.50;;;;;;;12.35;95.14;97942.02;105298;1280;22632;-68
2022/09/11 00:13:36;;;;;;;15.00;11.60;;;;;;;12.37;95.15;97940.88;105298;1280;139121;-67
2022/09/11 00:16:06;;;;;;;14.60;12.40;;;;;;;12.38;95.57;97934.97;105419;1280;26511;-67
2022/09/11 00:18:36;;;;;;;16.60;12.50;;;;;;;12.37;95.76;97929.73;105255;1281;138615;-66
2022/09/11 00:21:06;;;;;;;14.20;12.30;;;;;;;12.37;95.76;97929.40;105367;1280;25782;-67
2022/09/11 00:23:34;;;;;;;14.30;12.00;;;;;;;12.37;95.93;97935.64;105396;1280;23020;-67
2022/09/11 00:26:02;;;;;;;13.10;11.70;;;;;;;12.35;95.58;97941.20;105252;1280;138613;-67
2022/09/11 00:28:30;;;;;;;14.40;12.30;;;;;;;12.32;96.01;97940.70;105349;1280;22652;-67
2022/09/11 00:30:59;;;;;;;16.80;12.50;;;;;;;12.29;96.11;97943.10;105242;1280;138709;-67
2022/09/11 00:33:28;;;;;;;14.10;10.70;;;;;;;12.26;96.13;97936.70;105330;1280;22553;-66
2022/09/11 00:36:00;;;;;;;15.50;13.60;;;;;;;12.24;96.30;97935.12;105430;1280;24308;-67
2022/09/11 00:38:30;;;;;;;16.20;13.90;;;;;;;12.25;96.80;97931.62;105288;1280;138507;-67
2022/09/11 00:40:59;;;;;;;16.30;12.90;;;;;;;12.28;96.83;97930.86;104083;1280;1816296;-68
2022/09/11 00:43:29;;;;;;;19.20;14.00;;;;;;;12.30;96.81;97935.12;105234;1280;138894;-67
2022/09/11 00:46:04;;;;;;;13.00;11.60;;;;;;;12.31;96.75;97937.09;105401;1280;25516;-67
2022/09/11 00:48:35;;;;;;;16.90;12.50;;;;;;;12.31;96.59;97936.55;105314;1280;138732;-70
2022/09/11 00:51:03;;;;;;;16.80;12.90;;;;;;;12.31;96.59;97935.79;105325;1283;24394;-67
2022/09/11 00:53:35;;;;;;;16.80;12.90;;;;;;;12.31;96.71;97936.49;105336;1280;22657;-67
2022/09/11 00:56:06;;;;;;;16.20;14.50;;;;;;;12.31;96.67;97936.55;105260;1280;138507;-67
2022/09/11 00:58:37;;;;;;;16.70;13.70;;;;;;;12.33;96.84;97930.49;105381;1280;30448;-67
2022/09/11 01:01:04;;;;;;;19.80;14.60;;;;;;;12.36;96.99;97929.23;105301;1280;138679;-67
2022/09/11 01:03:31;;;;;;;17.40;14.80;;;;;;;12.39;97.16;97927.50;105413;1280;25260;-66
2022/09/11 01:05:58;;;;;;;17.10;15.20;;;;;;;12.41;96.94;97928.11;105360;1280;22541;-67
2022/09/11 01:08:26;;;;;;;17.00;15.20;;;;;;;12.44;96.80;97929.20;105251;1280;138565;-67
2022/09/11 01:11:24;;;;;;;21.70;15.90;;;;;;;12.46;96.81;97927.95;105376;1280;22703;-66
2022/09/11 01:14:10;;;;;;;19.40;14.90;;;;;;;12.49;96.76;97932.43;105201;1280;139169;-67
2022/09/11 01:16:48;;;;;;;17.70;14.40;;;;;;;12.50;96.59;97932.42;105327;1281;22551;-67
2022/09/11 01:19:52;;;;;;;18.20;14.70;;;;;;;12.50;96.80;97931.45;105263;1280;139161;-67
2022/09/11 01:22:30;;;;;;;15.70;13.80;;;;;;;12.49;96.48;97935.44;105374;1280;24256;-67
2022/09/11 01:25:14;;;;;;;17.00;14.30;;;;;;;12.48;96.51;97932.77;105305;1280;139463;-67
2022/09/11 01:27:41;;;;;;;17.60;15.10;;;;;;;12.46;96.76;97926.54;105414;1280;22633;-67
2022/09/11 01:30:20;;;;;;;14.60;12.50;;;;;;;12.44;96.65;97927.73;105255;1283;24380;-67
2022/09/11 01:33:00;;;;;;;19.90;15.40;;;;;;;12.41;97.04;97921.51;105286;1280;138469;-67
2022/09/11 01:36:07;;;;;;;18.80;16.10;;;;;;;12.38;97.01;97917.23;105360;1280;25238;-67
2022/09/11 01:39:04;;;;;;;18.60;14.10;;;;;;;12.37;97.33;97920.52;105281;1280;138806;-67
2022/09/11 01:41:31;;;;;;;18.50;16.20;;;;;;;12.36;97.49;97917.23;104709;1288;24733;-67
2022/09/11 01:44:05;;;;;;;18.60;16.60;;;;;;;12.37;97.77;97916.83;104602;1287;138710;-67
2022/09/11 01:46:41;;;;;;;18.30;15.50;;;;;;;12.39;97.76;97917.50;104694;1287;25250;-66
2022/09/11 01:49:24;;;;;;;19.50;16.30;;;;;;;12.42;98.02;97916.31;104560;1287;139118;-67
2022/09/11 01:51:56;;;;;;;21.40;17.70;;;;;;;12.45;97.95;97912.44;104673;1287;22569;-66
2022/09/11 01:54:28;;;;;;;21.10;16.80;;;;;;;12.48;97.79;97914.19;104715;1287;25450;-67
2022/09/11 01:57:05;;;;;;;22.90;15.60;;;;;;;12.50;97.92;97910.86;104610;1288;139192;-67
2022/09/11 01:59:46;;;;;;;22.50;16.70;;;;;;;12.53;97.93;97917.09;104770;1286;22658;-67
2022/09/11 02:02:21;;;;;;;21.30;17.50;;;;;;;12.54;98.02;97912.17;104686;1286;138990;-67
2022/09/11 02:04:58;;;;;;;20.50;17.60;;;;;;;12.55;97.83;97907.81;104785;1286;24122;-67
2022/09/11 02:08:01;;;;;;;20.30;16.80;;;;;;;12.56;97.96;97904.21;104706;1286;139063;-67
2022/09/11 02:10:35;;;;;;;22.80;18.20;;;;;;;12.57;97.97;97902.63;104733;1285;30614;-67
2022/09/11 02:13:13;;;;;;;20.90;17.60;;;;;;;12.57;98.01;97902.02;104613;1285;139026;-67
2022/09/11 02:15:45;;;;;;;18.80;16.60;;;;;;;12.58;97.98;97902.03;104861;1285;25495;-67
2022/09/11 02:18:23;;;;;;;19.10;16.20;;;;;;;12.60;98.23;97897.71;104860;1284;24329;-68
2022/09/11 02:20:51;;;;;;;22.30;16.90;;;;;;;12.62;98.15;97893.17;105245;1281;138535;-67
2022/09/11 02:23:19;;;;;;;22.80;16.90;;;;;;;12.62;98.33;97884.16;105330;1281;22601;-67
2022/09/11 02:25:47;;;;;;;22.10;17.10;;;;;;;12.63;98.34;97884.77;105160;1281;139325;-67
2022/09/11 02:28:14;;;;;;;19.40;16.00;;;;;;;12.64;98.30;97884.11;105387;1280;24099;-67
2022/09/11 02:30:42;;;;;;;23.30;17.10;;;;;;;12.65;98.46;97885.80;105203;1281;138723;-67
2022/09/11 02:33:30;;;;;;;24.50;18.30;;;;;;;12.66;98.48;97884.38;105273;1283;22717;-67
2022/09/11 02:36:31;;;;;;;23.60;17.40;;;;;;;12.68;98.72;97881.16;105338;1281;22570;-67
2022/09/11 02:39:09;;;;;;;30.50;20.50;;;;;;;12.68;98.72;97881.59;105262;1283;22553;-67
2022/09/11 02:41:56;;;;;;;27.60;20.00;;;;;;;12.70;98.73;97882.30;105308;1280;23044;-67
2022/09/11 02:44:39;;;;;;;35.60;21.10;;;;;;;12.72;98.92;97883.08;104875;1283;138641;-67
2022/09/11 02:47:33;;;;;;;27.40;19.10;;;;;;;12.75;98.83;97884.33;105083;1283;25234;-66
2022/09/11 02:50:32;;;;;;;27.30;20.20;;;;;;;12.77;98.95;97876.79;104815;1283;139000;-66
2022/09/11 02:53:04;;;;;;;25.80;19.60;;;;;;;12.79;98.73;97874.82;104909;1282;22881;-66
2022/09/11 02:56:00;;;;;;;28.30;21.30;;;;;;;12.81;98.81;97873.06;104828;1283;138773;-66
2022/09/11 02:58:40;;;;;;;26.30;19.20;;;;;;;12.82;98.80;97871.92;104952;1283;22560;-66
2022/09/11 03:01:08;;;;;;;20.00;16.70;;;;;;;12.84;98.85;97873.18;104781;1283;138759;-66
2022/09/11 03:03:40;;;;;;;24.40;18.20;;;;;;;12.85;98.81;97872.79;104965;1283;22557;-66
2022/09/11 03:06:12;;;;;;;21.90;17.70;;;;;;;12.86;98.73;97875.42;104956;1283;22721;-66
2022/09/11 03:08:40;;;;;;;29.40;19.50;;;;;;;12.87;98.75;97880.45;104859;1283;138751;-66
2022/09/11 03:11:10;;;;;;;26.10;18.50;;;;;;;12.88;98.72;97879.69;104906;1283;22808;-66
2022/09/11 03:13:37;;;;;;;25.00;19.90;;;;;;;12.89;98.63;97882.80;104855;1283;138720;-66
2022/09/11 03:16:05;;;;;;;26.30;21.50;;;;;;;12.90;98.58;97886.13;104920;1283;22564;-66
2022/09/11 03:18:33;;;;;;;26.80;21.20;;;;;;;12.91;98.36;97882.41;105085;1283;139081;-67
2022/09/11 03:21:00;;;;;;;29.10;22.60;;;;;;;12.90;98.38;97876.08;105167;1283;25321;-66
2022/09/11 03:23:27;;;;;;;30.80;22.10;;;;;;;12.90;98.44;97881.70;105386;1280;25318;-66
2022/09/11 03:25:54;;;;;;;33.90;25.90;;;;;;;12.90;98.11;97883.39;105215;1281;138631;-66
2022/09/11 03:28:22;;;;;;;36.60;27.30;;;;;;;12.89;98.37;97885.85;105280;1281;25678;-66
2022/09/11 03:30:51;;;;;;;40.60;29.30;;;;;;;12.90;98.21;97883.84;105130;1281;138883;-66
2022/09/11 03:33:18;;;;;;;;;;;;;;;12.89;98.11;97882.46;105333;1281;25363;-66
2022/09/11 03:35:46;;;;;;;50.10;33.20;;;;;;;12.87;98.17;97880.83;105265;1281;25264;-66
2022/09/11 03:38:15;;;;;;;50.00;32.80;;;;;;;12.85;98.02;97877.77;105250;1281;138823;-66
2022/09/11 03:40:45;;;;;;;56.60;36.70;;;;;;;12.84;98.22;97884.55;105239;1280;22525;-67
2022/09/11 03:43:13;;;;;;;54.70;36.90;;;;;;;12.83;98.10;97885.15;105238;1280;139088;-67
2022/09/11 03:45:40;;;;;;;64.20;40.40;;;;;;;12.81;98.09;97888.15;105362;1280;24236;-67
2022/09/11 03:48:08;;;;;;;60.70;37.40;;;;;;;12.81;98.24;97893.17;105359;1280;24264;-67
2022/09/11 03:50:35;;;;;;;60.50;38.40;;;;;;;12.80;98.12;97891.21;105238;1280;138776;-66
2022/09/11 03:53:02;;;;;;;51.50;33.40;;;;;;;12.80;98.22;97893.41;105309;1281;24528;-66
2022/09/11 03:55:30;;;;;;;44.40;30.20;;;;;;;12.80;98.09;97893.08;105215;1280;138888;-66
2022/09/11 03:57:58;;;;;;;45.10;29.60;;;;;;;12.78;97.93;97891.98;105315;1281;24292;-67
2022/09/11 04:00:25;;;;;;;41.50;29.20;;;;;;;12.77;97.81;97891.77;105292;1281;24292;-66
2022/09/11 04:02:55;;;;;;;42.00;27.90;;;;;;;12.76;97.90;97896.52;105290;1281;138627;-67
2022/09/11 04:05:32;;;;;;;36.60;25.60;;;;;;;12.76;97.89;97893.13;105339;1281;25542;-67
2022/09/11 04:08:01;;;;;;;37.50;25.00;;;;;;;12.75;97.92;97892.14;105266;1281;139262;-66
2022/09/11 04:10:28;;;;;;;33.30;24.40;;;;;;;12.75;97.82;97895.86;105336;1281;25362;-67
2022/09/11 04:12:56;;;;;;;33.60;24.20;;;;;;;12.74;97.74;97897.01;105190;1281;138833;-67
2022/09/11 04:15:23;;;;;;;29.60;21.90;;;;;;;12.73;97.57;97902.10;105202;1283;24273;-67
2022/09/11 04:17:50;;;;;;;27.90;19.90;;;;;;;12.71;97.59;97903.58;105310;1281;22742;-67
2022/09/11 04:20:17;;;;;;;24.90;19.60;;;;;;;12.69;97.50;97902.63;105220;1281;138878;-67
2022/09/11 04:22:44;;;;;;;22.80;18.40;;;;;;;12.68;97.40;97901.53;105306;1281;25320;-67
2022/09/11 04:25:13;;;;;;;19.70;17.60;;;;;;;12.67;97.55;97903.13;105210;1281;139331;-67
2022/09/11 04:27:40;;;;;;;23.50;18.40;;;;;;;12.67;97.43;97900.13;105341;1281;23967;-67
2022/09/11 04:30:10;;;;;;;22.10;16.70;;;;;;;12.66;97.49;97901.11;105392;1281;25318;-67
2022/09/11 04:32:37;;;;;;;20.80;17.80;;;;;;;12.66;97.30;97903.12;105196;1281;138821;-67
2022/09/11 04:35:05;;;;;;;22.70;17.80;;;;;;;12.65;97.27;97899.30;105344;1280;25322;-67
2022/09/11 04:37:36;;;;;;;24.90;16.60;;;;;;;12.65;97.31;97902.64;105208;1281;138627;-67
2022/09/11 04:40:03;;;;;;;20.90;17.20;;;;;;;12.65;97.32;97904.50;105328;1280;22566;-67
2022/09/11 04:42:31;;;;;;;23.00;18.10;;;;;;;12.64;97.24;97898.21;105469;1280;22691;-67
2022/09/11 04:44:58;;;;;;;21.00;16.80;;;;;;;12.64;97.58;97900.77;105354;1280;22538;-67
2022/09/11 04:47:25;;;;;;;22.00;16.50;;;;;;;12.65;97.63;97901.16;105330;1280;22546;-67
2022/09/11 04:49:52;;;;;;;23.90;18.40;;;;;;;12.65;97.79;97903.45;105229;1280;138754;-67
2022/09/11 04:52:19;;;;;;;25.20;19.50;;;;;;;12.66;97.67;97900.50;105340;1280;25371;-67
2022/09/11 04:54:47;;;;;;;30.50;21.40;;;;;;;12.66;97.78;97899.40;105201;1281;139038;-67
2022/09/11 04:57:16;;;;;;;30.30;20.00;;;;;;;12.68;97.75;97896.40;105322;1281;24150;-67
2022/09/11 04:59:43;;;;;;;25.90;20.30;;;;;;;12.70;97.89;97896.56;105319;1281;24324;-67
2022/09/11 05:02:13;;;;;;;27.70;21.00;;;;;;;12.72;97.95;97900.39;105265;1280;139178;-67
2022/09/11 05:04:43;;;;;;;29.30;22.50;;;;;;;12.75;97.84;97896.45;105375;1280;22539;-67
2022/09/11 05:07:12;;;;;;;28.90;21.40;;;;;;;12.78;98.00;97892.69;105207;1280;138974;-66
2022/09/11 05:09:40;;;;;;;25.30;19.40;;;;;;;12.81;97.85;97892.09;105387;1280;22534;-67
2022/09/11 05:12:08;;;;;;;27.60;18.40;;;;;;;12.84;97.70;97886.62;105312;1280;23019;-67
2022/09/11 05:14:35;;;;;;;25.40;18.70;;;;;;;12.89;97.77;97886.73;105288;1280;138839;-67
2022/09/11 05:17:02;;;;;;;23.50;18.20;;;;;;;12.94;97.77;97888.48;105363;1280;25277;-67
2022/09/11 05:19:30;;;;;;;23.90;17.60;;;;;;;12.98;97.82;97889.90;105279;1280;138741;-67
2022/09/11 05:21:57;;;;;;;22.10;17.40;;;;;;;13.02;97.47;97890.55;105458;1280;22746;-67
2022/09/11 05:24:24;;;;;;;23.10;17.40;;;;;;;13.07;97.50;97890.77;105369;1281;22526;-67
2022/09/11 05:26:52;;;;;;;22.50;18.70;;;;;;;13.11;97.61;97887.69;105324;1280;138518;-67
2022/09/11 05:29:19;;;;;;;24.30;19.20;;;;;;;13.15;97.43;97888.88;105327;1280;25247;-66
2022/09/11 05:32:01;;;;;;;23.30;19.10;;;;;;;13.21;97.72;97896.64;105245;1280;138861;-67
2022/09/11 05:34:28;;;;;;;26.50;18.80;;;;;;;13.26;97.36;97898.88;105336;1280;22772;-67
2022/09/11 05:36:56;;;;;;;24.10;17.60;;;;;;;13.29;97.05;97898.06;105257;1280;138874;-67
2022/09/11 05:39:24;;;;;;;27.00;18.90;;;;;;;13.33;97.03;97897.41;105362;1280;22506;-67
2022/09/11 05:41:54;;;;;;;24.20;17.70;;;;;;;13.38;97.04;97897.30;105328;1280;25424;-67
2022/09/11 05:44:22;;;;;;;22.60;17.80;;;;;;;13.43;97.10;97895.70;105321;1280;138804;-67
2022/09/11 05:46:50;;;;;;;25.70;17.90;;;;;;;13.46;96.72;97898.64;105388;1280;25352;-67
2022/09/11 05:49:18;;;;;;;27.60;18.30;;;;;;;13.51;96.68;97902.35;105311;1280;138736;-67
2022/09/11 05:51:45;;;;;;;25.80;19.00;;;;;;;13.52;96.22;97897.15;105369;1280;25261;-67
2022/09/11 05:54:12;;;;;;;24.30;18.30;;;;;;;13.53;96.00;97898.69;105370;1281;25437;-67
2022/09/11 05:56:40;;;;;;;25.50;18.70;;;;;;;13.56;96.25;97901.24;105251;1280;138669;-67
2022/09/11 05:59:14;;;;;;;25.40;19.30;;;;;;;13.59;96.16;97902.28;105345;1280;24240;-67
2022/09/11 06:01:42;;;;;;;29.80;19.60;;;;;;;13.61;95.98;97899.70;105277;1280;138743;-67
2022/09/11 06:04:19;;;;;;;26.00;19.40;;;;;;;13.63;95.80;97896.08;105344;1280;25376;-67
2022/09/11 06:06:47;;;;;;;28.80;20.50;;;;;;;13.68;96.00;97895.41;105280;1280;138863;-67
2022/09/11 06:09:15;;;;;;;26.80;20.90;;;;;;;13.72;95.78;97894.25;105381;1280;25485;-67
2022/09/11 06:11:42;;;;;;;25.70;20.50;;;;;;;13.76;95.80;97897.40;105366;1280;22655;-67
2022/09/11 06:14:11;;;;;;;23.90;19.70;;;;;;;13.81;95.87;97900.29;105214;1280;138668;-67
2022/09/11 06:16:39;;;;;;;25.70;20.10;;;;;;;13.87;95.31;97898.40;105375;1280;25544;-67
2022/09/11 06:19:10;;;;;;;27.70;20.90;;;;;;;13.93;95.22;97901.06;105214;1281;139229;-67
2022/09/11 06:21:37;;;;;;;28.00;21.30;;;;;;;13.99;95.28;97906.33;104965;1283;25650;-67
2022/09/11 06:24:09;;;;;;;27.50;20.90;;;;;;;14.04;95.01;97905.71;105285;1283;25296;-67
2022/09/11 06:26:37;;;;;;;28.40;21.40;;;;;;;14.11;94.94;97904.20;105223;1281;138688;-67
2022/09/11 06:29:04;;;;;;;26.50;20.90;;;;;;;14.16;94.84;97902.96;105236;1281;24227;-67
2022/09/11 06:31:33;;;;;;;;;;;;;;;14.22;94.29;97901.90;105227;1281;138437;-67
2022/09/11 06:33:59;;;;;;;28.40;21.30;;;;;;;14.24;93.74;97894.27;105271;1281;22594;-67
2022/09/11 06:36:28;;;;;;;25.40;20.70;;;;;;;14.24;93.60;97895.64;105306;1281;25530;-67
2022/09/11 06:38:57;;;;;;;29.50;21.40;;;;;;;14.27;93.53;97900.45;105312;1281;25323;-67
2022/09/11 06:41:26;;;;;;;24.20;19.50;;;;;;;14.30;93.78;97895.16;105403;1280;25402;-67
2022/09/11 06:43:57;;;;;;;24.70;18.80;;;;;;;14.35;93.71;97890.70;105268;1280;138674;-67
2022/09/11 06:46:25;;;;;;;23.40;18.90;;;;;;;14.42;93.51;97891.64;105371;1280;23154;-67
2022/09/11 06:48:55;;;;;;;19.30;17.20;;;;;;;14.51;93.84;97891.02;105301;1280;139168;-67
2022/09/11 06:51:25;;;;;;;18.90;16.50;;;;;;;14.58;93.40;97892.48;105317;1281;24346;-67
2022/09/11 06:53:57;;;;;;;20.20;16.90;;;;;;;14.64;93.10;97895.90;105394;1280;24441;-66
2022/09/11 06:56:29;;;;;;;21.00;18.10;;;;;;;14.68;92.79;97901.36;105276;1280;138108;-67
2022/09/11 06:58:57;;;;;;;19.30;17.30;;;;;;;14.76;92.93;97898.94;105396;1280;25362;-67
2022/09/11 07:01:25;;;;;;;20.60;15.80;;;;;;;14.79;91.85;97894.91;105338;1280;138661;-67
2022/09/11 07:03:56;;;;;;;17.70;15.50;;;;;;;14.81;91.73;97887.99;105359;1280;23927;-66
2022/09/11 07:06:26;;;;;;;19.00;16.80;;;;;;;14.83;91.22;97892.35;105369;1280;22791;-67
2022/09/11 07:08:59;;;;;;;20.20;16.00;;;;;;;14.84;90.67;97894.37;105278;1280;138156;-67
2022/09/11 07:11:31;;;;;;;20.00;16.30;;;;;;;14.87;91.22;97891.41;105352;1280;25463;-67
2022/09/11 07:14:01;;;;;;;17.30;14.60;;;;;;;14.94;91.48;97885.52;105223;1281;138950;-67
2022/09/11 07:16:28;;;;;;;17.50;14.70;;;;;;;14.98;90.99;97887.55;105262;1281;22537;-67
2022/09/11 07:18:56;;;;;;;16.70;14.50;;;;;;;15.02;91.11;97889.12;105244;1280;138877;-67
2022/09/11 07:21:25;;;;;;;16.20;14.50;;;;;;;15.02;90.16;97891.31;105331;1280;22692;-67
2022/09/11 07:23:58;;;;;;;19.10;17.10;;;;;;;14.97;89.46;97891.80;105312;1280;25235;-67
2022/09/11 07:26:28;;;;;;;17.80;16.00;;;;;;;14.91;89.60;97896.68;105298;1280;138474;-67
2022/09/11 07:28:59;;;;;;;19.80;16.10;;;;;;;14.87;89.89;97894.73;105445;1280;22715;-67
2022/09/11 07:31:28;;;;;;;19.10;17.00;;;;;;;14.85;90.11;97900.02;105256;1280;138917;-67
2022/09/11 07:33:56;;;;;;;19.30;16.60;;;;;;;14.81;89.43;97897.52;105409;1280;25404;-67
2022/09/11 07:36:29;;;;;;;18.90;16.60;;;;;;;14.79;89.56;97901.05;105426;1280;24308;-67
2022/09/11 07:38:57;;;;;;;20.80;17.00;;;;;;;14.76;89.30;97895.04;105295;1280;138116;-67
2022/09/11 07:41:30;;;;;;;25.30;19.80;;;;;;;14.73;89.62;97896.39;105346;1280;22574;-67
2022/09/11 07:44:00;;;;;;;19.70;17.30;;;;;;;14.71;89.63;97898.59;105307;1280;138858;-67
2022/09/11 07:46:30;;;;;;;17.80;15.40;;;;;;;14.68;89.76;97899.34;105377;1280;25375;-67
2022/09/11 07:49:01;;;;;;;17.10;14.90;;;;;;;14.66;89.56;97901.38;105268;1280;138878;-67
2022/09/11 07:51:29;;;;;;;20.20;17.40;;;;;;;14.62;89.85;97898.06;105438;1280;22551;-66
2022/09/11 07:53:58;;;;;;;;;;;;;;;14.64;89.70;97898.60;105391;1281;22557;-66
2022/09/11 07:56:27;;;;;;;17.30;15.60;;;;;;;14.65;89.87;97901.33;105256;1280;124824;-67
2022/09/11 07:58:55;;;;;;;16.80;14.90;;;;;;;14.66;89.60;97902.14;105422;1280;25425;-67
2022/09/11 08:01:28;;;;;;;17.70;14.80;;;;;;;14.68;89.99;97902.67;105289;1280;139062;-67
2022/09/11 08:03:59;;;;;;;18.40;15.70;;;;;;;14.68;89.63;97904.95;105399;1280;25402;-67
2022/09/11 08:06:30;;;;;;;17.50;15.60;;;;;;;14.67;89.78;97904.83;105333;1280;22564;-67
2022/09/11 08:09:04;;;;;;;18.60;15.80;;;;;;;14.65;89.58;97907.79;105393;1280;24231;-66
2022/09/11 08:11:37;;;;;;;19.70;16.80;;;;;;;14.65;89.63;97911.95;105393;1280;22579;-66
2022/09/11 08:14:06;;;;;;;15.70;13.20;;;;;;;14.67;89.97;97916.00;105250;1280;138544;-66
2022/09/11 08:16:34;;;;;;;16.70;15.00;;;;;;;14.67;89.86;97914.36;105361;1280;24228;-67
2022/09/11 08:19:04;;;;;;;16.00;14.00;;;;;;;14.66;90.35;97915.35;105274;1280;139086;-67
2022/09/11 08:21:36;;;;;;;15.50;13.90;;;;;;;14.66;90.49;97913.88;105398;1280;25256;-67
2022/09/11 08:24:04;;;;;;;13.40;12.10;;;;;;;14.68;90.72;97912.37;105384;1280;25440;-67
2022/09/11 08:26:31;;;;;;;16.50;14.20;;;;;;;14.68;90.66;97910.51;105220;1280;138790;-67
2022/09/11 08:28:59;;;;;;;14.80;13.20;;;;;;;14.69;90.96;97911.32;105353;1280;25296;-67
2022/09/11 08:31:28;;;;;;;13.30;12.00;;;;;;;14.71;91.18;97912.96;105316;1280;138510;-67
2022/09/11 08:33:57;;;;;;;13.30;12.00;;;;;;;14.72;90.88;97912.95;105387;1280;22537;-67
2022/09/11 08:36:25;;;;;;;13.70;12.30;;;;;;;14.70;91.06;97912.25;105298;1280;22550;-67
2022/09/11 08:38:53;;;;;;;13.60;12.20;;;;;;;14.73;91.29;97913.43;105286;1280;138905;-67
2022/09/11 08:41:27;;;;;;;11.10;10.10;;;;;;;14.79;91.69;97913.43;105391;1280;23971;-67
2022/09/11 08:44:01;;;;;;;11.00;10.00;;;;;;;14.81;91.14;97916.98;105310;1280;138494;-67
2022/09/11 08:46:42;;;;;;;11.00;9.90;;;;;;;14.81;91.18;97916.29;105338;1281;24708;-67
2022/09/11 08:49:09;;;;;;;8.80;7.90;;;;;;;14.83;91.03;97915.98;105289;1280;138915;-67
2022/09/11 08:51:39;;;;;;;11.90;10.60;;;;;;;14.81;91.26;97918.80;105357;1280;22548;-67
2022/09/11 08:54:20;;;;;;;12.40;11.10;;;;;;;14.82;91.46;97923.95;105417;1280;22563;-66
2022/09/11 08:56:50;;;;;;;11.40;10.20;;;;;;;14.81;91.22;97926.76;105282;1280;138629;-67
2022/09/11 08:59:43;;;;;;;10.40;9.20;;;;;;;14.77;91.01;97926.72;105399;1280;24265;-66
2022/09/11 09:02:45;;;;;;;11.00;9.90;;;;;;;14.77;91.36;97925.80;105217;1280;138335;-66
2022/09/11 09:05:34;;;;;;;11.20;10.00;;;;;;;14.82;91.59;97929.65;105326;1280;24095;-66
2022/09/11 09:08:34;;;;;;;10.70;9.50;;;;;;;14.89;91.71;97927.77;105224;1280;138737;-66
2022/09/11 09:11:13;;;;;;;10.50;9.50;;;;;;;15.02;91.80;97926.52;105230;1283;24332;-66
2022/09/11 09:13:50;;;;;;;;;;;;;;;15.13;92.12;97926.32;105240;1281;138522;-66
2022/09/11 09:16:27;;;;;;;11.00;9.90;;;;;;;15.30;92.33;97926.60;105327;1281;22559;-66
2022/09/11 09:19:03;;;;;;;11.80;9.60;;;;;;;15.44;91.45;97926.36;105233;1281;138529;-67
2022/09/11 09:21:41;;;;;;;10.40;9.00;;;;;;;15.53;91.29;97929.23;105192;1281;25420;-66
2022/09/11 09:24:20;;;;;;;10.90;9.20;;;;;;;15.64;91.04;97930.76;105290;1281;22760;-66
2022/09/11 09:26:53;;;;;;;11.10;10.00;;;;;;;15.73;90.85;97927.99;105195;1281;138901;-67
2022/09/11 09:29:24;;;;;;;11.50;10.40;;;;;;;15.80;90.60;97929.91;105289;1283;22572;-67
2022/09/11 09:31:58;;;;;;;9.20;7.60;;;;;;;15.83;90.06;97929.70;105234;1281;138285;-66
2022/09/11 09:34:30;;;;;;;9.80;8.70;;;;;;;15.84;88.82;97930.02;105262;1281;26605;-67
2022/09/11 09:37:19;;;;;;;9.20;8.30;;;;;;;15.85;89.16;97930.58;105181;1281;138638;-67
2022/09/11 09:39:46;;;;;;;10.90;9.60;;;;;;;15.85;88.95;97927.92;105304;1281;31860;-67
2022/09/11 09:42:32;;;;;;;9.80;8.80;;;;;;;15.90;89.70;97928.36;105418;1280;25490;-66
2022/09/11 09:45:22;;;;;;;10.30;9.00;;;;;;;15.94;89.14;97927.48;105413;1280;25420;-66
2022/09/11 09:47:49;;;;;;;9.60;8.80;;;;;;;15.94;88.91;97930.95;105357;1280;25366;-67
2022/09/11 09:50:20;;;;;;;10.60;9.60;;;;;;;15.91;88.99;97931.91;105330;1280;138260;-67
2022/09/11 09:52:49;;;;;;;9.70;8.80;;;;;;;15.87;89.19;97932.40;105414;1280;24224;-67
2022/09/11 09:55:18;;;;;;;10.90;9.90;;;;;;;15.80;88.87;97930.23;105344;1280;138349;-67
2022/09/11 09:57:45;;;;;;;10.00;9.10;;;;;;;15.74;88.57;97929.41;105412;1280;25350;-67
2022/09/11 10:00:13;;;;;;;10.70;9.50;;;;;;;15.69;88.55;97929.73;105372;1280;30276;-67
2022/09/11 10:02:47;;;;;;;10.80;9.80;;;;;;;15.66;88.61;97931.45;105467;1281;138590;-67
2022/09/11 10:05:22;;;;;;;10.90;9.80;;;;;;;15.64;88.44;97927.58;105390;1280;24305;-67
2022/09/11 10:07:52;;;;;;;10.30;9.40;;;;;;;15.63;88.57;97931.64;105258;1280;138448;-67
2022/09/11 10:10:22;;;;;;;11.00;9.80;;;;;;;15.62;88.67;97934.40;105386;1280;22563;-66
2022/09/11 10:12:50;;;;;;;9.30;8.40;;;;;;;15.58;88.47;97936.58;105266;1280;138522;-67
2022/09/11 10:15:20;;;;;;;10.80;8.90;;;;;;;15.52;88.30;97938.02;105376;1281;22570;-67
2022/09/11 10:17:49;;;;;;;9.10;8.20;;;;;;;15.47;88.63;97940.39;105473;1280;22575;-66
2022/09/11 10:20:20;;;;;;;9.50;8.20;;;;;;;15.44;88.41;97940.02;105340;1280;139547;-67
2022/09/11 10:22:49;;;;;;;8.50;7.80;;;;;;;15.42;88.73;97940.86;105426;1280;25251;-67
2022/09/11 10:25:28;;;;;;;10.10;9.20;;;;;;;15.46;88.97;97938.70;105337;1281;139018;-67
2022/09/11 10:27:58;;;;;;;9.40;8.40;;;;;;;15.55;89.75;97939.05;105393;1281;22636;-67
2022/09/11 10:30:37;;;;;;;8.00;7.30;;;;;;;15.61;89.34;97937.99;105351;1279;25199;-67
2022/09/11 10:33:35;;;;;;;8.00;7.30;;;;;;;15.65;89.27;97940.90;105397;1280;22642;-66
2022/09/11 10:36:07;;;;;;;8.80;8.00;;;;;;;15.73;89.53;97940.99;105390;1280;23503;-66
2022/09/11 10:38:46;;;;;;;7.10;6.40;;;;;;;15.80;89.35;97942.70;105239;1281;138172;-67
2022/09/11 10:41:13;;;;;;;7.30;6.50;;;;;;;15.81;88.50;97938.35;105301;1281;30131;-67
2022/09/11 10:43:46;;;;;;;6.50;5.90;;;;;;;15.80;87.61;97934.57;105205;1281;138247;-67
2022/09/11 10:46:31;;;;;;;7.00;6.40;;;;;;;15.73;86.31;97933.52;105330;1281;24263;-66
2022/09/11 10:49:15;;;;;;;9.10;8.10;;;;;;;15.66;87.15;97939.96;105256;1281;138517;-67
2022/09/11 10:52:15;;;;;;;7.90;7.20;;;;;;;15.66;88.23;97937.11;105462;1281;30808;-66
2022/09/11 10:54:44;;;;;;;;;;;;;;;15.69;88.30;97936.36;105137;1281;138754;-66
2022/09/11 10:57:30;;;;;;;8.30;7.50;;;;;;;15.68;88.08;97938.95;105247;1281;25211;-67
2022/09/11 11:00:13;;;;;;;7.30;6.50;;;;;;;15.67;88.03;97937.10;105273;1281;24529;-67
2022/09/11 11:02:44;;;;;;;7.00;6.30;;;;;;;15.66;88.15;97939.63;105273;1280;138206;-66
2022/09/11 11:05:25;;;;;;;5.50;4.90;;;;;;;15.64;87.58;97942.19;105402;1280;22549;-67
2022/09/11 11:08:21;;;;;;;6.30;4.80;;;;;;;15.56;87.47;97935.83;105330;1280;138362;-67
2022/09/11 11:11:15;;;;;;;5.30;4.90;;;;;;;15.52;87.61;97941.82;105355;1281;25271;-67
2022/09/11 11:14:03;;;;;;;5.20;4.60;;;;;;;15.46;87.63;97947.97;105293;1280;138180;-67
2022/09/11 11:17:02;;;;;;;4.50;4.10;;;;;;;15.40;87.69;97952.79;105354;1280;22545;-66
2022/09/11 11:19:37;;;;;;;5.30;4.80;;;;;;;15.30;87.28;97949.11;105279;1281;138234;-66
2022/09/11 11:22:12;;;;;;;5.00;4.50;;;;;;;15.25;87.96;97954.19;105361;1282;22544;-67
2022/09/11 11:24:45;;;;;;;4.90;4.60;;;;;;;15.24;88.34;97955.30;105298;1280;138431;-67
2022/09/11 11:27:48;;;;;;;5.00;4.60;;;;;;;15.26;88.75;97955.05;105401;1281;25308;-66
2022/09/11 11:30:28;;;;;;;5.20;4.70;;;;;;;15.28;88.91;97951.86;105407;1281;24423;-67
2022/09/11 11:33:12;;;;;;;4.90;4.50;;;;;;;15.29;88.35;97953.12;105264;1281;137927;-66
2022/09/11 11:36:15;;;;;;;4.80;4.30;;;;;;;15.24;88.03;97953.23;105366;1280;22695;-66